Time;durP1;ratioP1;P1;durP2;ratioP2;P2;SDS_P1;SDS_P2;PMS_P1;PMS_P2;Temp;Humidity;BMP_temperature;BMP_pressure;BME280_temperature;BME280_humidity;BME280_pressure;Samples;Min_cycle;Max_cycle;Signal;HPM_P1;HPM_P2
2023/04/12 00:01:03;;;;;;;2.80;2.57;;;12.50;83.50;;;;;;4896362;29;20531;-82
2023/04/12 00:03:29;;;;;;;4.30;2.67;;;12.40;83.20;;;;;;4895257;29;20439;-82
2023/04/12 00:05:55;;;;;;;5.63;2.50;;;12.20;83.70;;;;;;4896111;29;20489;-82
2023/04/12 00:08:25;;;;;;;2.80;2.40;;;12.40;85.00;;;;;;4895023;29;20914;-82
2023/04/12 00:10:51;;;;;;;4.03;2.90;;;12.50;84.50;;;;;;4896712;29;20196;-83
2023/04/12 00:13:18;;;;;;;3.13;2.90;;;12.50;84.10;;;;;;4895117;29;20463;-83
2023/04/12 00:15:44;;;;;;;7.00;2.77;;;12.50;83.90;;;;;;4879375;29;20527;-82
2023/04/12 00:18:10;;;;;;;4.17;3.07;;;12.50;84.00;;;;;;4894588;29;20772;-82
2023/04/12 00:20:37;;;;;;;6.50;3.10;;;12.60;84.10;;;;;;4895988;29;20466;-82
2023/04/12 00:23:03;;;;;;;4.00;2.90;;;12.60;84.10;;;;;;4895888;29;20580;-83
2023/04/12 00:25:30;;;;;;;4.77;4.27;;;12.60;83.80;;;;;;4897678;29;20449;-82
2023/04/12 00:27:56;;;;;;;4.80;2.47;;;12.30;84.00;;;;;;4900014;29;20415;-82
2023/04/12 00:30:22;;;;;;;6.17;3.20;;;12.40;85.30;;;;;;4898955;29;20198;-83
2023/04/12 00:32:48;;;;;;;3.40;3.07;;;12.40;85.20;;;;;;4900226;29;20231;-82
2023/04/12 00:35:13;;;;;;;2.33;2.13;;;12.50;85.10;;;;;;4898467;29;20811;-82
2023/04/12 00:37:39;;;;;;;4.07;2.50;;;12.50;85.80;;;;;;4899230;29;20288;-82
2023/04/12 00:40:08;;;;;;;4.97;2.67;;;12.50;85.80;;;;;;4899260;29;20223;-82
2023/04/12 00:42:35;;;;;;;4.43;3.10;;;12.40;86.20;;;;;;4899737;29;20215;-83
2023/04/12 00:45:01;;;;;;;6.67;2.87;;;12.30;86.60;;;;;;4901506;29;20446;-83
2023/04/12 00:47:28;;;;;;;5.97;2.77;;;12.40;87.30;;;;;;4892487;29;21036;-82
2023/04/12 00:49:55;;;;;;;3.87;2.60;;;12.50;87.40;;;;;;4899253;29;20209;-82
2023/04/12 00:52:22;;;;;;;4.37;3.13;;;12.50;87.60;;;;;;4898121;29;20932;-82
2023/04/12 00:54:50;;;;;;;5.50;3.10;;;12.40;87.90;;;;;;4882050;29;20432;-81
2023/04/12 00:57:16;;;;;;;3.63;2.40;;;12.40;88.10;;;;;;4897834;29;20475;-82
2023/04/12 00:59:42;;;;;;;5.43;3.03;;;12.40;88.80;;;;;;4898877;29;20542;-83
2023/04/12 01:02:08;;;;;;;4.27;3.10;;;12.40;89.20;;;;;;4882120;29;20585;-82
2023/04/12 01:04:36;;;;;;;5.07;2.97;;;12.50;89.30;;;;;;4898405;29;20179;-87
2023/04/12 01:07:36;;;;;;;5.03;3.03;;;12.40;89.80;;;;;;4896015;29;20482;-82
2023/04/12 01:10:27;;;;;;;3.23;2.90;;;12.40;90.20;;;;;;4883021;29;20935;-81
2023/04/12 01:13:11;;;;;;;4.37;2.70;;;12.20;91.00;;;;;;4888287;29;20454;-81
2023/04/12 01:15:43;;;;;;;2.50;2.23;;;12.30;91.40;;;;;;4898769;29;20423;-78
2023/04/12 01:18:18;;;;;;;3.73;2.63;;;12.10;91.80;;;;;;4893884;29;20514;-78
2023/04/12 01:20:56;;;;;;;3.13;2.77;;;12.00;92.90;;;;;;4898004;29;20473;-78
2023/04/12 01:23:40;;;;;;;2.90;2.33;;;12.00;93.40;;;;;;4898282;29;20409;-78
2023/04/12 01:26:33;;;;;;;3.37;2.30;;;11.80;94.00;;;;;;4896751;29;20439;-78
2023/04/12 01:29:02;;;;;;;3.47;2.53;;;11.60;95.30;;;;;;4898054;29;20862;-78
2023/04/12 01:31:31;;;;;;;2.50;2.30;;;11.40;96.40;;;;;;4897436;29;21082;-78
2023/04/12 01:33:58;;;;;;;5.13;2.47;;;11.40;97.60;;;;;;4898487;29;20436;-78
2023/04/12 01:36:27;;;;;;;2.50;2.30;;;11.40;97.90;;;;;;4896226;29;20478;-78
2023/04/12 01:38:53;;;;;;;3.57;3.27;;;11.40;98.60;;;;;;4897451;29;20435;-78
2023/04/12 01:41:20;;;;;;;4.73;2.80;;;11.50;99.00;;;;;;4897913;29;20520;-78
2023/04/12 01:43:47;;;;;;;3.53;2.70;;;11.60;98.90;;;;;;4897620;29;20467;-78
2023/04/12 01:46:15;;;;;;;3.97;3.07;;;11.40;99.60;;;;;;4897285;29;20440;-78
2023/04/12 01:48:49;;;;;;;2.27;2.17;;;11.50;99.90;;;;;;4897892;29;20448;-78
2023/04/12 01:51:22;;;;;;;3.40;2.87;;;11.40;99.90;;;;;;4897202;29;20933;-78
2023/04/12 01:54:03;;;;;;;3.80;2.53;;;11.40;99.90;;;;;;4898037;29;20445;-78
2023/04/12 01:56:33;;;;;;;5.53;3.10;;;11.30;99.90;;;;;;4896733;29;20481;-78
2023/04/12 01:59:01;;;;;;;3.33;2.13;;;11.20;99.90;;;;;;4896933;29;20444;-78
2023/04/12 02:01:29;;;;;;;7.10;3.27;;;11.20;99.90;;;;;;4896792;29;20511;-78
2023/04/12 02:04:01;;;;;;;2.67;2.47;;;11.10;99.90;;;;;;4897844;29;20432;-78
2023/04/12 02:06:27;;;;;;;3.93;2.40;;;11.00;99.90;;;;;;4897531;29;20408;-78
2023/04/12 02:09:04;;;;;;;3.37;2.40;;;10.90;99.90;;;;;;4897299;29;20521;-78
2023/04/12 02:11:30;;;;;;;6.40;2.30;;;11.10;99.90;;;;;;4896521;29;20432;-78
2023/04/12 02:13:56;;;;;;;4.87;2.80;;;11.20;99.90;;;;;;4897578;29;20921;-78
2023/04/12 02:16:21;;;;;;;2.93;2.63;;;11.30;99.90;;;;;;4896665;29;20434;-78
2023/04/12 02:18:51;;;;;;;2.40;2.20;;;11.30;99.90;;;;;;4897513;29;20223;-78
2023/04/12 02:21:17;;;;;;;3.03;2.40;;;11.40;99.90;;;;;;4896744;29;20245;-78
2023/04/12 02:23:43;;;;;;;4.40;2.73;;;11.30;99.90;;;;;;4897730;29;20439;-78
2023/04/12 02:26:10;;;;;;;5.83;2.50;;;11.20;99.90;;;;;;4897530;29;20445;-78
2023/04/12 02:28:37;;;;;;;4.73;2.70;;;11.20;99.90;;;;;;4896613;29;20435;-78
2023/04/12 02:31:04;;;;;;;3.47;2.93;;;11.30;99.90;;;;;;4880661;29;21002;-79
2023/04/12 02:33:30;;;;;;;2.73;2.63;;;11.30;99.90;;;;;;4896411;29;20440;-78
2023/04/12 02:35:56;;;;;;;4.50;2.43;;;11.10;99.90;;;;;;4896061;29;20438;-78
2023/04/12 02:38:22;;;;;;;2.20;2.00;;;11.10;99.90;;;;;;4895784;29;20438;-78
2023/04/12 02:40:48;;;;;;;4.33;3.07;;;10.90;99.90;;;;;;4877888;29;20237;-78
2023/04/12 02:43:13;;;;;;;4.80;2.90;;;10.80;99.90;;;;;;4897243;29;20844;-78
2023/04/12 02:45:39;;;;;;;4.33;2.70;;;10.70;99.90;;;;;;4896964;29;20215;-78
2023/04/12 02:48:05;;;;;;;3.10;2.90;;;10.40;99.90;;;;;;4896856;29;20228;-78
2023/04/12 02:50:31;;;;;;;5.40;2.67;;;10.40;99.90;;;;;;4896228;29;20444;-78
2023/04/12 02:52:56;;;;;;;5.80;2.70;;;10.40;99.90;;;;;;4896579;29;20201;-78
2023/04/12 02:55:22;;;;;;;3.47;3.07;;;10.40;99.90;;;;;;4896081;29;20201;-78
2023/04/12 02:57:49;;;;;;;6.20;2.80;;;10.50;99.90;;;;;;4897426;29;20192;-78
2023/04/12 03:00:15;;;;;;;3.23;2.67;;;10.60;99.90;;;;;;4879101;29;20217;-78
2023/04/12 03:02:43;;;;;;;2.60;2.40;;;10.80;99.90;;;;;;4896732;29;20463;-78
2023/04/12 03:05:09;;;;;;;8.53;3.40;;;10.70;99.90;;;;;;4880575;29;20426;-79
2023/04/12 03:07:35;;;;;;;3.40;2.60;;;10.40;99.90;;;;;;4895457;29;20425;-78
2023/04/12 03:10:03;;;;;;;2.60;2.43;;;10.40;99.90;;;;;;4879512;29;20522;-79
2023/04/12 03:12:29;;;;;;;4.30;2.80;;;10.40;99.90;;;;;;4895927;29;20630;-79
2023/04/12 03:14:55;;;;;;;5.93;3.17;;;10.60;99.90;;;;;;4897280;29;20408;-79
2023/04/12 03:17:21;;;;;;;3.50;2.07;;;10.70;99.90;;;;;;4896108;29;20432;-79
2023/04/12 03:19:48;;;;;;;3.27;2.80;;;10.60;99.90;;;;;;4896199;29;20215;-79
2023/04/12 03:22:14;;;;;;;1.97;1.87;;;10.60;99.90;;;;;;4897021;29;20323;-79
2023/04/12 03:24:41;;;;;;;3.77;2.50;;;10.60;99.90;;;;;;4895683;29;20877;-79
2023/04/12 03:27:07;;;;;;;3.07;2.70;;;10.60;99.90;;;;;;4890518;29;20439;-79
2023/04/12 03:29:33;;;;;;;3.43;2.97;;;10.70;99.90;;;;;;4895798;29;20972;-78
2023/04/12 03:31:59;;;;;;;2.70;2.50;;;10.50;99.90;;;;;;4896688;29;20442;-78
2023/04/12 03:34:26;;;;;;;2.90;2.70;;;10.30;99.90;;;;;;4879439;29;20219;-79
2023/04/12 03:36:54;;;;;;;3.33;2.83;;;10.30;99.90;;;;;;4896686;29;20176;-78
2023/04/12 03:39:21;;;;;;;3.97;3.23;;;10.40;99.90;;;;;;4895538;29;20436;-78
2023/04/12 03:41:46;;;;;;;2.50;2.30;;;10.10;99.90;;;;;;4896159;29;20799;-78
2023/04/12 03:44:13;;;;;;;3.93;3.03;;;10.30;99.90;;;;;;4896093;29;20431;-78
2023/04/12 03:46:38;;;;;;;3.93;3.33;;;10.00;99.90;;;;;;4895978;29;20198;-78
2023/04/12 03:49:04;;;;;;;2.63;2.43;;;10.20;99.90;;;;;;4896767;29;20409;-78
2023/04/12 03:51:30;;;;;;;2.67;2.47;;;10.40;99.90;;;;;;4894554;29;20491;-78
2023/04/12 03:53:56;;;;;;;2.60;2.40;;;10.50;99.90;;;;;;4896648;29;20286;-78
2023/04/12 03:56:22;;;;;;;3.40;3.20;;;10.60;99.90;;;;;;4895490;29;20316;-78
2023/04/12 03:58:47;;;;;;;2.90;2.70;;;10.50;99.90;;;;;;4897719;29;20180;-78
2023/04/12 04:01:13;;;;;;;3.40;3.10;;;10.40;99.90;;;;;;4866240;29;20648;-78
2023/04/12 04:03:39;;;;;;;3.13;3.03;;;10.50;99.90;;;;;;4898127;29;20246;-78
2023/04/12 04:06:06;;;;;;;3.20;3.00;;;10.50;99.90;;;;;;4900497;29;20439;-78
2023/04/12 04:08:33;;;;;;;2.70;2.50;;;10.40;99.90;;;;;;4899367;29;20433;-78
2023/04/12 04:10:59;;;;;;;3.33;2.87;;;10.20;99.90;;;;;;4899026;29;20446;-78
2023/04/12 04:13:25;;;;;;;3.20;2.90;;;10.20;99.90;;;;;;4899211;29;20433;-78
2023/04/12 04:15:59;;;;;;;3.50;3.00;;;10.30;99.90;;;;;;4900039;29;20403;-78
2023/04/12 04:18:24;;;;;;;3.50;3.20;;;10.50;99.90;;;;;;4899060;29;20201;-78
2023/04/12 04:20:50;;;;;;;3.23;3.00;;;10.40;99.90;;;;;;4899561;29;20471;-79
2023/04/12 04:23:16;;;;;;;3.27;2.93;;;10.20;99.90;;;;;;4899501;29;20242;-79
2023/04/12 04:25:43;;;;;;;2.83;2.63;;;10.20;99.90;;;;;;4898995;29;21035;-79
2023/04/12 04:28:09;;;;;;;3.30;2.50;;;10.20;99.90;;;;;;4900000;29;20273;-78
2023/04/12 04:30:37;;;;;;;5.73;2.80;;;10.30;99.90;;;;;;4898294;29;20811;-78
2023/04/12 04:33:06;;;;;;;2.73;2.47;;;10.50;99.90;;;;;;4898985;29;20190;-79
2023/04/12 04:35:32;;;;;;;2.40;1.83;;;10.50;99.90;;;;;;4898449;29;20521;-78
2023/04/12 04:38:00;;;;;;;4.90;4.50;;;10.50;99.90;;;;;;4882236;29;20846;-78
2023/04/12 04:40:26;;;;;;;5.13;3.70;;;10.60;99.90;;;;;;4878024;29;20588;-78
2023/04/12 04:42:55;;;;;;;2.50;2.30;;;10.50;99.90;;;;;;4895423;29;20440;-78
2023/04/12 04:45:25;;;;;;;2.40;2.20;;;10.40;99.90;;;;;;4898890;29;20197;-78
2023/04/12 04:47:52;;;;;;;4.43;4.23;;;10.50;99.90;;;;;;4898960;29;20447;-78
2023/04/12 04:50:20;;;;;;;2.80;2.40;;;10.60;99.90;;;;;;4898988;29;20494;-78
2023/04/12 04:52:47;;;;;;;2.73;2.53;;;10.50;99.90;;;;;;4898829;29;20440;-79
2023/04/12 04:55:13;;;;;;;5.50;5.10;;;10.60;99.90;;;;;;4899287;29;20437;-78
2023/04/12 04:57:40;;;;;;;3.10;2.53;;;10.70;99.90;;;;;;4898506;29;20803;-79
2023/04/12 05:00:12;;;;;;;4.37;2.70;;;10.60;99.90;;;;;;4897330;29;20477;-78
2023/04/12 05:02:42;;;;;;;4.77;4.40;;;10.50;99.90;;;;;;4898056;29;20948;-78
2023/04/12 05:05:15;;;;;;;4.50;4.20;;;10.50;99.90;;;;;;4899686;29;20783;-78
2023/04/12 05:07:42;;;;;;;3.03;2.80;;;10.50;99.90;;;;;;4898597;29;20496;-79
2023/04/12 05:10:09;;;;;;;2.60;2.40;;;10.40;99.90;;;;;;4897083;29;20455;-79
2023/04/12 05:12:36;;;;;;;4.23;3.80;;;10.40;99.90;;;;;;4897748;29;20456;-79
2023/04/12 05:15:03;;;;;;;5.00;3.97;;;10.50;99.90;;;;;;4899326;29;20418;-79
2023/04/12 05:17:29;;;;;;;2.97;2.77;;;10.50;99.90;;;;;;4880316;29;20436;-79
2023/04/12 05:19:55;;;;;;;3.30;3.10;;;10.60;99.90;;;;;;4898556;29;20577;-79
2023/04/12 05:22:20;;;;;;;2.20;2.00;;;10.60;99.90;;;;;;4898912;29;20501;-78
2023/04/12 05:24:50;;;;;;;3.07;2.77;;;10.60;99.90;;;;;;4897633;29;20677;-78
2023/04/12 05:27:16;;;;;;;4.77;4.47;;;10.60;99.90;;;;;;4897736;29;20185;-78
2023/04/12 05:29:42;;;;;;;2.40;2.20;;;10.30;99.90;;;;;;4896927;29;20473;-83
2023/04/12 05:32:08;;;;;;;3.90;3.70;;;10.30;99.90;;;;;;4895956;29;20436;-79
2023/04/12 05:34:34;;;;;;;2.40;2.20;;;10.20;99.90;;;;;;4898096;29;20436;-79
2023/04/12 05:37:00;;;;;;;2.80;2.60;;;10.40;99.90;;;;;;4898758;29;20191;-79
2023/04/12 05:39:26;;;;;;;3.97;3.77;;;10.60;99.90;;;;;;4898219;29;20176;-81
2023/04/12 05:41:52;;;;;;;2.30;2.20;;;10.60;99.90;;;;;;4898287;29;20437;-79
2023/04/12 05:44:18;;;;;;;2.40;2.20;;;10.50;99.90;;;;;;4881370;29;20830;-79
2023/04/12 05:46:44;;;;;;;5.17;3.83;;;10.30;99.90;;;;;;4898378;29;20412;-79
2023/04/12 05:49:10;;;;;;;4.20;3.90;;;10.30;99.90;;;;;;4883945;29;20242;-79
2023/04/12 05:51:35;;;;;;;2.80;2.60;;;10.40;99.90;;;;;;4897869;29;20941;-79
2023/04/12 05:54:05;;;;;;;3.57;3.27;;;10.30;99.90;;;;;;4900155;29;20507;-79
2023/04/12 05:56:31;;;;;;;4.70;4.30;;;10.40;99.90;;;;;;4897755;29;20234;-79
2023/04/12 05:58:57;;;;;;;5.47;4.23;;;10.50;99.90;;;;;;4898439;29;20443;-79
2023/04/12 06:01:30;;;;;;;5.10;3.50;;;10.60;99.90;;;;;;4897431;29;20504;-79
2023/04/12 06:04:02;;;;;;;3.10;2.90;;;10.70;99.90;;;;;;4898947;29;20793;-79
2023/04/12 06:06:29;;;;;;;5.83;5.33;;;10.40;99.90;;;;;;4897626;29;20786;-79
2023/04/12 06:08:58;;;;;;;3.10;2.90;;;10.30;99.90;;;;;;4880586;29;20443;-78
2023/04/12 06:11:24;;;;;;;6.20;5.80;;;10.30;99.90;;;;;;4893018;29;20445;-81
2023/04/12 06:13:51;;;;;;;3.03;2.50;;;10.40;99.90;;;;;;4897385;29;20809;-79
2023/04/12 06:16:16;;;;;;;5.00;4.50;;;10.50;99.90;;;;;;4897571;29;20443;-79
2023/04/12 06:18:42;;;;;;;3.63;3.50;;;10.30;99.90;;;;;;4880519;29;20830;-79
2023/04/12 06:21:08;;;;;;;2.30;2.20;;;10.40;99.90;;;;;;4897802;29;20214;-78
2023/04/12 06:23:33;;;;;;;4.00;3.80;;;10.50;99.90;;;;;;4879308;29;20321;-78
2023/04/12 06:25:59;;;;;;;3.77;3.50;;;10.50;99.90;;;;;;4897452;29;20879;-79
2023/04/12 06:28:28;;;;;;;2.30;2.17;;;10.50;99.90;;;;;;4895096;29;20649;-91
2023/04/12 06:30:54;;;;;;;3.50;3.30;;;10.60;99.90;;;;;;4892058;29;20438;-82
2023/04/12 06:33:21;;;;;;;2.30;2.20;;;10.60;99.90;;;;;;4877718;29;20186;-83
2023/04/12 06:35:48;;;;;;;2.40;2.30;;;10.30;99.90;;;;;;4895563;29;20811;-83
2023/04/12 06:38:14;;;;;;;3.00;2.90;;;10.30;99.90;;;;;;4895120;29;20425;-83
2023/04/12 06:40:40;;;;;;;3.00;2.90;;;10.30;99.90;;;;;;4879772;29;20500;-83
2023/04/12 06:43:05;;;;;;;3.53;3.33;;;10.20;99.90;;;;;;4878999;29;20529;-83
2023/04/12 06:45:31;;;;;;;3.90;3.70;;;10.30;99.90;;;;;;4894078;29;20191;-83
2023/04/12 06:47:57;;;;;;;4.17;4.07;;;10.30;99.90;;;;;;4893747;29;20276;-83
2023/04/12 06:50:25;;;;;;;3.23;3.07;;;10.40;99.90;;;;;;4896683;29;20183;-82
2023/04/12 06:52:50;;;;;;;6.10;4.77;;;10.40;99.90;;;;;;4878766;29;20282;-82
2023/04/12 06:55:16;;;;;;;2.63;2.40;;;10.40;99.90;;;;;;4895874;29;20529;-81
2023/04/12 06:57:43;;;;;;;10.27;3.30;;;10.50;99.90;;;;;;4896653;29;20196;-81
2023/04/12 07:00:10;;;;;;;4.20;2.07;;;10.50;99.90;;;;;;4879621;29;20475;-82
2023/04/12 07:02:37;;;;;;;2.03;2.00;;;10.50;99.90;;;;;;4892823;29;20898;-82
2023/04/12 07:05:04;;;;;;;1.80;1.80;;;10.50;99.90;;;;;;4895418;29;20434;-83
2023/04/12 07:07:29;;;;;;;2.00;1.90;;;10.60;99.90;;;;;;4895901;29;20439;-84
2023/04/12 07:09:55;;;;;;;1.80;1.70;;;10.60;99.90;;;;;;4865145;29;20495;-81
2023/04/12 07:12:21;;;;;;;2.20;2.20;;;10.50;99.90;;;;;;4899711;29;20220;-80
2023/04/12 07:14:47;;;;;;;2.50;2.40;;;10.70;99.90;;;;;;4888547;29;20484;-82
2023/04/12 07:17:13;;;;;;;2.20;2.20;;;10.60;99.90;;;;;;4895811;29;20520;-82
2023/04/12 07:19:40;;;;;;;2.43;2.23;;;10.60;99.90;;;;;;4895062;29;20308;-82
2023/04/12 07:22:09;;;;;;;2.23;2.13;;;10.60;99.90;;;;;;4897015;29;20436;-82
2023/04/12 07:24:35;;;;;;;2.50;2.47;;;10.60;99.90;;;;;;4879419;29;20444;-82
2023/04/12 07:27:01;;;;;;;3.03;2.87;;;10.60;99.90;;;;;;4895317;29;20454;-82
2023/04/12 07:29:26;;;;;;;2.60;2.50;;;10.60;99.90;;;;;;4881240;29;20290;-83
2023/04/12 07:31:52;;;;;;;4.20;4.00;;;10.70;99.90;;;;;;4895419;29;20194;-81
2023/04/12 07:34:18;;;;;;;2.17;2.00;;;10.80;99.90;;;;;;4897850;29;20209;-81
2023/04/12 07:36:44;;;;;;;3.33;3.13;;;10.70;99.90;;;;;;4898235;29;20193;-83
2023/04/12 07:39:11;;;;;;;2.70;2.60;;;10.70;99.90;;;;;;4871878;29;20630;-84
2023/04/12 07:41:37;;;;;;;3.53;3.33;;;10.80;99.90;;;;;;4898897;29;20232;-81
2023/04/12 07:44:04;;;;;;;2.40;2.37;;;10.80;99.90;;;;;;4898429;29;20461;-83
2023/04/12 07:46:30;;;;;;;2.50;2.40;;;10.80;99.90;;;;;;4897959;29;20434;-82
2023/04/12 07:48:56;;;;;;;3.53;2.70;;;10.70;99.90;;;;;;4898800;29;20484;-84
2023/04/12 07:51:21;;;;;;;2.77;2.67;;;10.80;99.90;;;;;;4898897;29;20517;-86
2023/04/12 07:53:47;;;;;;;3.10;2.90;;;10.70;99.90;;;;;;4892259;29;20605;-78
2023/04/12 07:56:14;;;;;;;2.80;2.63;;;10.80;99.90;;;;;;4895621;29;20309;-77
2023/04/12 07:58:40;;;;;;;3.10;2.90;;;10.80;99.90;;;;;;4885422;29;20249;-76
2023/04/12 08:01:06;;;;;;;2.80;2.70;;;11.10;99.90;;;;;;4898976;29;20478;-76
2023/04/12 08:03:31;;;;;;;3.43;3.03;;;11.50;99.90;;;;;;4899542;29;20411;-76
2023/04/12 08:05:57;;;;;;;2.43;1.80;;;11.70;99.90;;;;;;4898820;29;20439;-76
2023/04/12 08:08:23;;;;;;;4.30;4.20;;;12.10;99.90;;;;;;4895228;29;20195;-77
2023/04/12 08:10:51;;;;;;;1.70;1.70;;;12.50;99.90;;;;;;4897072;29;20493;-77
2023/04/12 08:13:17;;;;;;;4.10;3.70;;;12.60;99.90;;;;;;4899545;29;20439;-77
2023/04/12 08:15:43;;;;;;;2.83;2.73;;;12.80;99.90;;;;;;4898032;29;20463;-86
2023/04/12 08:18:09;;;;;;;3.20;3.00;;;12.90;99.90;;;;;;4899959;29;20512;-86
2023/04/12 08:20:35;;;;;;;2.80;2.60;;;13.00;99.90;;;;;;4898861;29;20459;-84
2023/04/12 08:23:01;;;;;;;2.40;2.30;;;12.90;99.90;;;;;;4900088;29;20788;-84
2023/04/12 08:25:27;;;;;;;1.70;1.60;;;12.50;99.90;;;;;;4897494;29;20446;-85
2023/04/12 08:27:55;;;;;;;2.43;2.33;;;12.00;99.90;;;;;;4899315;29;20413;-86
2023/04/12 08:30:25;;;;;;;2.10;2.10;;;12.10;99.90;;;;;;4898333;29;20187;-85
2023/04/12 08:32:52;;;;;;;2.13;2.07;;;12.10;99.90;;;;;;4900169;29;20410;-86
2023/04/12 08:35:18;;;;;;;1.93;1.83;;;11.70;99.90;;;;;;4899166;29;20819;-86
2023/04/12 08:37:43;;;;;;;3.17;2.97;;;11.70;99.90;;;;;;4898484;29;20427;-86
2023/04/12 08:40:09;;;;;;;1.60;1.60;;;11.60;99.90;;;;;;4893146;29;20471;-83
2023/04/12 08:42:36;;;;;;;4.33;4.23;;;11.60;99.90;;;;;;4880741;29;20544;-82
2023/04/12 08:45:06;;;;;;;1.10;1.10;;;11.60;99.90;;;;;;4896509;29;20442;-84
2023/04/12 08:47:37;;;;;;;3.60;3.50;;;11.60;99.90;;;;;;4882024;29;20425;-85
2023/04/12 08:50:08;;;;;;;1.40;1.30;;;11.60;99.90;;;;;;4899026;29;20415;-83
2023/04/12 08:52:35;;;;;;;2.90;2.80;;;11.50;99.90;;;;;;4899114;29;20438;-85
2023/04/12 08:55:08;;;;;;;1.60;1.50;;;11.40;99.90;;;;;;4885648;29;20464;-90
2023/04/12 08:57:35;;;;;;;2.97;2.93;;;11.40;99.90;;;;;;4879319;29;20450;-85
2023/04/12 09:00:02;;;;;;;3.10;3.00;;;11.60;99.90;;;;;;4880959;29;20476;-86
2023/04/12 09:02:29;;;;;;;1.90;1.90;;;11.60;99.90;;;;;;4881574;29;20770;-88
2023/04/12 09:04:55;;;;;;;2.00;1.90;;;11.40;99.90;;;;;;4882679;29;20439;-89
2023/04/12 09:07:22;;;;;;;2.30;2.30;;;11.50;99.90;;;;;;4883326;29;20431;-89
2023/04/12 09:09:49;;;;;;;1.90;1.80;;;11.70;99.90;;;;;;4879381;29;20923;-88
2023/04/12 09:12:15;;;;;;;1.60;1.60;;;11.60;99.90;;;;;;4880196;29;20826;-89
2023/04/12 09:14:45;;;;;;;1.50;1.50;;;11.60;99.90;;;;;;4880036;29;20522;-88
2023/04/12 09:17:25;;;;;;;1.60;1.50;;;11.70;99.90;;;;;;4881467;29;20460;-88
2023/04/12 09:19:54;;;;;;;1.67;1.67;;;11.90;99.90;;;;;;4879216;29;20845;-86
2023/04/12 09:22:36;;;;;;;4.60;4.50;;;11.90;99.90;;;;;;4880358;29;20421;-88
2023/04/12 09:25:02;;;;;;;3.10;2.60;;;11.80;99.90;;;;;;4880194;29;20853;-89
2023/04/12 09:27:28;;;;;;;1.70;1.60;;;11.90;99.90;;;;;;4881976;29;20427;-89
2023/04/12 09:30:08;;;;;;;2.10;2.00;;;11.90;99.90;;;;;;4881141;29;20437;-91
2023/04/12 09:32:35;;;;;;;1.20;1.20;;;12.00;99.90;;;;;;4883343;29;20406;-91
2023/04/12 09:35:04;;;;;;;2.20;2.10;;;11.90;99.90;;;;;;4882874;29;20438;-91
2023/04/12 09:37:30;;;;;;;1.50;1.50;;;12.00;99.90;;;;;;4882804;29;20418;-90
2023/04/12 09:40:00;;;;;;;1.37;1.37;;;12.00;99.90;;;;;;4896420;29;20466;-91
2023/04/12 09:42:27;;;;;;;2.30;2.20;;;12.10;99.90;;;;;;4881222;29;20423;-92
2023/04/12 09:44:53;;;;;;;1.80;1.80;;;12.20;99.90;;;;;;4882681;29;20850;-92
2023/04/12 09:47:20;;;;;;;2.00;2.00;;;12.30;99.90;;;;;;4881251;29;20440;-89
2023/04/12 09:49:45;;;;;;;1.87;1.80;;;12.30;99.90;;;;;;4880466;29;20408;-88
2023/04/12 09:52:12;;;;;;;1.70;1.70;;;12.30;99.90;;;;;;4880487;29;20465;-87
2023/04/12 09:54:47;;;;;;;1.60;1.60;;;12.30;99.90;;;;;;4879857;29;20175;-86
2023/04/12 09:57:17;;;;;;;1.90;1.80;;;12.30;99.90;;;;;;4895483;29;20994;-88
2023/04/12 09:59:45;;;;;;;1.87;1.77;;;12.40;99.90;;;;;;4898678;29;20469;-88
2023/04/12 10:02:18;;;;;;;1.77;1.73;;;12.40;99.90;;;;;;4899873;29;20415;-90
2023/04/12 10:04:47;;;;;;;1.80;1.80;;;12.40;99.90;;;;;;4883615;29;20433;-91
2023/04/12 10:07:13;;;;;;;4.10;4.00;;;12.40;99.90;;;;;;4900015;29;20414;-90
2023/04/12 10:09:40;;;;;;;1.50;1.40;;;12.40;99.90;;;;;;4899706;29;20519;-90
2023/04/12 10:12:08;;;;;;;4.20;4.10;;;12.50;99.90;;;;;;4906276;29;20429;-90
2023/04/12 10:14:34;;;;;;;2.00;1.90;;;12.70;99.90;;;;;;4904004;29;20455;-83
2023/04/12 10:17:02;;;;;;;4.70;4.50;;;12.80;99.90;;;;;;4895906;29;20518;-87
2023/04/12 10:19:30;;;;;;;1.93;1.83;;;12.90;99.90;;;;;;4906784;29;20995;-90
2023/04/12 10:21:56;;;;;;;3.73;3.53;;;12.70;99.90;;;;;;4904452;29;20890;-81
2023/04/12 10:24:24;;;;;;;1.70;1.50;;;12.80;99.90;;;;;;4902341;29;20459;-82
2023/04/12 10:26:52;;;;;;;2.57;2.47;;;12.90;99.90;;;;;;4883494;29;20520;-79
2023/04/12 10:29:35;;;;;;;1.67;1.67;;;12.90;99.90;;;;;;4904197;29;20464;-81
2023/04/12 10:32:20;;;;;;;2.60;2.10;;;12.90;99.90;;;;;;4903579;29;20410;-83
2023/04/12 10:34:53;;;;;;;2.17;2.07;;;13.00;99.90;;;;;;4905380;29;20461;-83
2023/04/12 10:37:20;;;;;;;2.27;2.17;;;13.20;99.90;;;;;;4908119;29;20413;-81
2023/04/12 10:39:56;;;;;;;2.10;2.10;;;13.30;99.90;;;;;;4907185;29;20458;-81
2023/04/12 10:42:29;;;;;;;2.40;2.30;;;13.30;99.90;;;;;;4905956;29;20406;-82
2023/04/12 10:45:24;;;;;;;2.20;2.10;;;13.50;99.90;;;;;;4894680;29;20734;-82
2023/04/12 10:48:00;;;;;;;2.23;2.13;;;13.60;99.90;;;;;;4897962;29;20457;-81
2023/04/12 10:50:31;;;;;;;1.90;1.80;;;13.80;99.90;;;;;;4905029;29;20430;-82
2023/04/12 10:53:11;;;;;;;2.10;2.00;;;13.80;99.90;;;;;;4901903;29;20483;-81
2023/04/12 10:55:44;;;;;;;1.80;1.80;;;13.80;99.90;;;;;;4890318;29;20498;-82
2023/04/12 10:58:10;;;;;;;1.93;1.83;;;13.70;99.90;;;;;;4907654;29;20442;-82
2023/04/12 11:00:58;;;;;;;1.83;1.83;;;13.60;99.90;;;;;;4903695;29;20525;-82
2023/04/12 11:03:25;;;;;;;1.70;1.70;;;13.70;99.90;;;;;;4908443;29;20472;-82
2023/04/12 11:05:59;;;;;;;1.50;1.50;;;13.60;99.90;;;;;;4893764;29;20438;-81
2023/04/12 11:08:29;;;;;;;2.13;2.03;;;13.60;99.90;;;;;;4882428;29;20441;-81
2023/04/12 11:11:01;;;;;;;2.10;2.00;;;13.60;99.90;;;;;;4903145;29;20638;-81
2023/04/12 11:13:28;;;;;;;2.00;1.90;;;13.60;99.90;;;;;;4901126;29;20429;-83
2023/04/12 11:15:55;;;;;;;2.03;2.00;;;13.70;99.90;;;;;;4883585;29;20445;-81
2023/04/12 11:18:21;;;;;;;1.80;1.77;;;13.70;99.90;;;;;;4882132;29;20457;-82
2023/04/12 11:20:49;;;;;;;2.30;2.10;;;13.80;99.90;;;;;;4880882;29;20470;-82
2023/04/12 11:23:17;;;;;;;1.70;1.70;;;13.80;99.90;;;;;;4898802;29;20442;-81
2023/04/12 11:25:48;;;;;;;1.80;1.70;;;13.80;99.90;;;;;;4880381;29;20562;-82
2023/04/12 11:28:17;;;;;;;2.50;2.40;;;13.80;99.90;;;;;;4898794;29;20474;-82
2023/04/12 11:30:52;;;;;;;2.70;2.60;;;13.80;99.90;;;;;;4899635;29;20775;-81
2023/04/12 11:33:36;;;;;;;2.50;2.40;;;13.80;99.90;;;;;;4907515;29;20455;-82
2023/04/12 11:36:11;;;;;;;2.90;2.80;;;13.90;99.90;;;;;;4896542;29;20466;-77
2023/04/12 11:38:37;;;;;;;2.40;2.40;;;13.90;99.90;;;;;;4894983;29;20431;-77
2023/04/12 11:41:05;;;;;;;1.70;1.60;;;13.90;99.90;;;;;;4895514;29;20521;-78
2023/04/12 11:43:33;;;;;;;2.30;2.20;;;14.00;99.90;;;;;;4896311;29;20419;-77
2023/04/12 11:45:59;;;;;;;2.17;2.10;;;14.00;99.90;;;;;;4896128;29;20419;-78
2023/04/12 11:48:29;;;;;;;2.03;2.00;;;14.00;99.90;;;;;;4896393;29;20433;-78
2023/04/12 11:50:56;;;;;;;2.30;2.20;;;14.00;99.90;;;;;;4879722;29;20445;-77
2023/04/12 11:53:27;;;;;;;2.97;2.83;;;14.00;99.90;;;;;;4896972;29;20422;-78
2023/04/12 11:55:56;;;;;;;3.10;3.00;;;14.00;99.90;;;;;;4895445;29;20470;-79
2023/04/12 11:58:25;;;;;;;3.60;3.50;;;13.90;99.90;;;;;;4886413;29;20939;-78
2023/04/12 12:00:51;;;;;;;2.10;2.00;;;13.80;99.90;;;;;;4896205;29;20593;-78
2023/04/12 12:03:17;;;;;;;2.37;2.37;;;13.60;99.90;;;;;;4895903;29;20443;-77
2023/04/12 12:05:44;;;;;;;2.63;2.53;;;13.60;99.90;;;;;;4896915;29;20414;-78
2023/04/12 12:08:10;;;;;;;2.50;2.40;;;13.50;99.90;;;;;;4896767;29;20461;-76
2023/04/12 12:10:37;;;;;;;2.60;2.50;;;13.50;99.90;;;;;;4896907;29;20487;-77
2023/04/12 12:13:09;;;;;;;2.13;2.13;;;13.40;99.90;;;;;;4895941;29;20411;-78
2023/04/12 12:15:35;;;;;;;2.20;2.20;;;13.40;99.90;;;;;;4897285;29;20504;-78
2023/04/12 12:18:01;;;;;;;2.30;2.20;;;13.50;99.90;;;;;;4896785;29;20425;-78
2023/04/12 12:20:27;;;;;;;2.43;2.40;;;13.60;99.90;;;;;;4898590;29;20306;-78
2023/04/12 12:22:53;;;;;;;2.17;2.17;;;13.60;99.90;;;;;;4900330;29;20504;-78
2023/04/12 12:25:19;;;;;;;2.30;2.30;;;13.70;99.90;;;;;;4900299;29;20179;-77
2023/04/12 12:27:51;;;;;;;1.93;1.93;;;13.70;99.90;;;;;;4900117;29;20427;-77
2023/04/12 12:30:19;;;;;;;2.50;2.40;;;13.80;99.90;;;;;;4900781;29;20579;-78
2023/04/12 12:32:44;;;;;;;3.33;3.13;;;13.80;99.90;;;;;;4900322;29;20775;-78
2023/04/12 12:35:12;;;;;;;3.30;3.20;;;13.80;99.90;;;;;;4899886;29;20434;-78
2023/04/12 12:37:51;;;;;;;3.00;2.90;;;13.90;99.90;;;;;;4900594;29;20182;-78
2023/04/12 12:40:20;;;;;;;3.80;3.60;;;13.90;99.90;;;;;;4900593;29;20462;-77
2023/04/12 12:42:53;;;;;;;4.03;3.67;;;14.00;99.90;;;;;;4899771;29;20421;-78
2023/04/12 12:45:21;;;;;;;2.63;2.53;;;14.00;99.90;;;;;;4900177;29;20435;-78
2023/04/12 12:47:51;;;;;;;2.90;2.80;;;14.10;99.90;;;;;;4899572;29;20437;-76
2023/04/12 12:50:19;;;;;;;3.10;3.00;;;14.10;99.90;;;;;;4883230;29;20439;-78
2023/04/12 12:52:45;;;;;;;3.27;3.07;;;14.20;99.90;;;;;;4899638;29;20426;-77